createdAt,value
2022-12-24T00:01:01.069Z,8.67
2022-12-24T00:03:28.232Z,8.69
2022-12-24T00:05:55.201Z,8.68
2022-12-24T00:08:22.255Z,8.62
2022-12-24T00:10:53.594Z,8.64
2022-12-24T00:13:21.581Z,8.61
2022-12-24T00:15:49.096Z,8.58
2022-12-24T00:18:16.067Z,8.56
2022-12-24T00:20:46.971Z,8.55
2022-12-24T00:23:13.995Z,8.52
2022-12-24T00:25:40.705Z,8.50
2022-12-24T00:28:07.538Z,8.49
2022-12-24T00:30:34.276Z,8.48
2022-12-24T00:33:01.003Z,8.46
2022-12-24T00:35:27.687Z,8.39
2022-12-24T00:37:54.356Z,8.40
2022-12-24T00:40:20.990Z,8.41
2022-12-24T00:42:47.619Z,8.41
2022-12-24T00:45:14.312Z,8.35
2022-12-24T00:47:41.231Z,8.34
2022-12-24T00:50:08.351Z,8.30
2022-12-24T00:52:35.300Z,8.27
2022-12-24T00:55:02.448Z,8.29
2022-12-24T00:57:29.288Z,8.26
2022-12-24T00:59:56.063Z,8.27
2022-12-24T01:02:23.179Z,8.28
2022-12-24T01:05:08.552Z,8.31
2022-12-24T01:07:35.412Z,8.28
2022-12-24T01:10:02.395Z,8.34
2022-12-24T01:12:29.354Z,8.38
2022-12-24T01:14:56.002Z,8.46
2022-12-24T01:17:22.666Z,8.45
2022-12-24T01:19:49.373Z,8.43
2022-12-24T01:22:16.198Z,8.39
2022-12-24T01:24:42.956Z,8.34
2022-12-24T01:27:09.800Z,8.34
2022-12-24T01:29:36.539Z,8.33
2022-12-24T01:32:03.950Z,8.31
2022-12-24T01:34:30.846Z,8.27
2022-12-24T01:36:57.648Z,8.28
2022-12-24T01:39:24.863Z,8.23
2022-12-24T01:42:10.807Z,8.25
2022-12-24T01:44:43.868Z,8.25
2022-12-24T01:47:24.727Z,8.33
2022-12-24T01:49:59.671Z,8.40
2022-12-24T01:52:30.001Z,8.45
2022-12-24T01:55:10.530Z,8.53
2022-12-24T01:57:48.633Z,8.54
2022-12-24T02:00:16.688Z,8.56
2022-12-24T02:02:50.847Z,8.57
2022-12-24T02:05:24.510Z,8.61
2022-12-24T02:07:51.756Z,8.56
2022-12-24T02:10:18.624Z,8.55
2022-12-24T02:12:46.984Z,8.54
2022-12-24T02:15:16.953Z,8.53
2022-12-24T02:18:14.937Z,8.51
2022-12-24T02:21:15.039Z,8.51
2022-12-24T02:24:03.669Z,8.54
2022-12-24T02:26:57.716Z,8.55
2022-12-24T02:29:27.957Z,8.57
2022-12-24T02:32:02.460Z,8.56
2022-12-24T02:34:51.479Z,8.59
2022-12-24T02:37:33.472Z,8.58
2022-12-24T02:40:13.836Z,8.57
2022-12-24T02:42:46.849Z,8.54
2022-12-24T02:45:28.165Z,8.52
2022-12-24T02:47:56.033Z,8.46
2022-12-24T02:50:23.672Z,8.45
2022-12-24T02:52:50.399Z,8.42
2022-12-24T02:55:54.674Z,8.44
2022-12-24T02:58:36.502Z,8.44
2022-12-24T03:01:18.620Z,8.39
2022-12-24T03:04:07.151Z,8.31
2022-12-24T03:06:57.051Z,8.24
2022-12-24T03:09:38.744Z,8.15
2022-12-24T03:12:15.981Z,8.05
2022-12-24T03:14:44.600Z,7.99
2022-12-24T03:17:12.267Z,7.97
2022-12-24T03:19:40.635Z,7.93
2022-12-24T03:22:10.156Z,7.89
2022-12-24T03:24:37.121Z,7.86
2022-12-24T03:27:06.972Z,7.84
2022-12-24T03:29:33.658Z,7.82
2022-12-24T03:32:03.006Z,7.83
2022-12-24T03:34:30.413Z,7.82
2022-12-24T03:36:57.208Z,7.79
2022-12-24T03:39:24.015Z,7.78
2022-12-24T03:41:50.724Z,7.75
2022-12-24T03:44:17.359Z,7.73
2022-12-24T03:46:44.007Z,7.70
2022-12-24T03:49:10.675Z,7.67
2022-12-24T03:51:37.321Z,7.66
2022-12-24T03:54:04.135Z,7.67
2022-12-24T03:56:30.805Z,7.67
2022-12-24T03:58:57.464Z,7.68
2022-12-24T04:01:24.194Z,7.68
2022-12-24T04:03:50.979Z,7.68
2022-12-24T04:06:18.009Z,7.66
2022-12-24T04:08:44.760Z,7.69
2022-12-24T04:11:14.960Z,7.66
2022-12-24T04:13:41.632Z,7.64
2022-12-24T04:16:11.992Z,7.65
2022-12-24T04:18:39.986Z,7.63
2022-12-24T04:21:07.451Z,7.61
2022-12-24T04:23:36.167Z,7.60
2022-12-24T04:26:04.853Z,7.57
2022-12-24T04:28:33.442Z,7.55
2022-12-24T04:31:04.835Z,7.56
2022-12-24T04:33:31.832Z,7.58
2022-12-24T04:35:59.718Z,7.63
2022-12-24T04:38:26.920Z,7.63
2022-12-24T04:41:09.119Z,7.64
2022-12-24T04:43:36.122Z,7.65
2022-12-24T04:46:08.215Z,7.66
2022-12-24T04:48:34.931Z,7.64
2022-12-24T04:51:05.959Z,7.64
2022-12-24T04:53:32.897Z,7.65
2022-12-24T04:55:59.534Z,7.68
2022-12-24T04:58:26.495Z,7.67
2022-12-24T05:00:54.088Z,7.67
2022-12-24T05:03:20.940Z,7.69
2022-12-24T05:05:47.968Z,7.71
2022-12-24T05:08:14.693Z,7.69
2022-12-24T05:10:41.379Z,7.67
2022-12-24T05:13:08.023Z,7.68
2022-12-24T05:15:34.656Z,7.64
2022-12-24T05:18:01.425Z,7.64
2022-12-24T05:20:28.047Z,7.58
2022-12-24T05:23:13.387Z,7.51
2022-12-24T05:25:58.566Z,7.45
2022-12-24T05:28:25.433Z,7.43
2022-12-24T05:30:52.103Z,7.43
2022-12-24T05:33:18.811Z,7.45
2022-12-24T05:35:45.452Z,7.48
2022-12-24T05:38:12.077Z,7.48
2022-12-24T05:40:38.704Z,7.49
2022-12-24T05:43:05.377Z,7.48
2022-12-24T05:45:32.098Z,7.48
2022-12-24T05:47:58.806Z,7.49
2022-12-24T05:50:26.113Z,7.49
2022-12-24T05:53:04.927Z,7.46
2022-12-24T05:55:31.632Z,7.45
2022-12-24T05:57:58.416Z,7.44
2022-12-24T06:00:25.254Z,7.42
2022-12-24T06:02:51.991Z,7.39
2022-12-24T06:05:18.667Z,7.34
2022-12-24T06:07:45.302Z,7.31
2022-12-24T06:10:11.947Z,7.26
2022-12-24T06:12:38.946Z,7.22
2022-12-24T06:15:06.276Z,7.18
2022-12-24T06:17:33.872Z,7.15
2022-12-24T06:20:00.607Z,7.13
2022-12-24T06:22:27.472Z,7.08
2022-12-24T06:24:54.081Z,7.05
2022-12-24T06:27:20.751Z,7.03
2022-12-24T06:29:47.371Z,7.01
2022-12-24T06:32:13.991Z,6.97
2022-12-24T06:34:40.618Z,6.98
2022-12-24T06:37:07.437Z,6.98
2022-12-24T06:39:34.047Z,6.99
2022-12-24T06:42:01.105Z,7.01
2022-12-24T06:44:27.728Z,7.00
2022-12-24T06:46:54.349Z,7.03
2022-12-24T06:49:21.105Z,7.04
2022-12-24T06:51:47.812Z,7.05
2022-12-24T06:54:14.452Z,7.05
2022-12-24T06:56:41.190Z,7.04
2022-12-24T06:59:07.812Z,7.05
2022-12-24T07:01:34.665Z,7.06
2022-12-24T07:04:01.407Z,7.07
2022-12-24T07:06:29.832Z,7.09
2022-12-24T07:08:57.219Z,7.12
2022-12-24T07:11:25.443Z,7.14
2022-12-24T07:13:52.171Z,7.21
2022-12-24T07:16:18.950Z,7.22
2022-12-24T07:18:45.669Z,7.25
2022-12-24T07:21:12.367Z,7.25
2022-12-24T07:23:39.004Z,7.25
2022-12-24T07:26:06.900Z,7.27
2022-12-24T07:28:33.788Z,7.21
2022-12-24T07:31:00.764Z,7.25
2022-12-24T07:33:27.942Z,7.23
2022-12-24T07:36:02.689Z,7.27
2022-12-24T07:38:30.613Z,7.27
2022-12-24T07:40:58.199Z,7.29
2022-12-24T07:43:26.013Z,7.27
2022-12-24T07:45:56.900Z,7.29
2022-12-24T07:48:24.831Z,7.32
2022-12-24T07:50:52.397Z,7.33
2022-12-24T07:53:19.589Z,7.35
2022-12-24T07:55:46.373Z,7.34
2022-12-24T07:58:13.000Z,7.34
2022-12-24T08:00:39.761Z,7.36
2022-12-24T08:03:06.538Z,7.36
2022-12-24T08:05:36.950Z,7.37
2022-12-24T08:08:03.742Z,7.38
2022-12-24T08:10:30.507Z,7.38
2022-12-24T08:12:57.161Z,7.39
2022-12-24T08:15:23.781Z,7.39
2022-12-24T08:17:50.732Z,7.44
2022-12-24T08:20:17.487Z,7.46
2022-12-24T08:22:44.201Z,7.48
2022-12-24T08:25:11.096Z,7.47
2022-12-24T08:27:38.175Z,7.51
2022-12-24T08:30:05.829Z,7.53
2022-12-24T08:32:32.670Z,7.56
2022-12-24T08:34:59.641Z,7.58
2022-12-24T08:37:26.313Z,7.61
2022-12-24T08:39:52.936Z,7.64
2022-12-24T08:42:19.802Z,7.66
2022-12-24T08:44:46.471Z,7.71
2022-12-24T08:47:13.304Z,7.75
2022-12-24T08:49:40.139Z,7.91
2022-12-24T08:52:07.207Z,7.99
2022-12-24T08:54:33.848Z,7.99
2022-12-24T08:57:00.504Z,7.98
2022-12-24T08:59:27.126Z,7.98
2022-12-24T09:01:53.863Z,7.96
2022-12-24T09:04:20.726Z,7.98
2022-12-24T09:06:47.392Z,7.99
2022-12-24T09:09:14.049Z,7.96
2022-12-24T09:11:40.729Z,7.96
2022-12-24T09:14:07.401Z,7.99
2022-12-24T09:16:34.155Z,7.99
2022-12-24T09:19:00.856Z,8.02
2022-12-24T09:21:27.662Z,8.06
2022-12-24T09:23:54.314Z,8.11
2022-12-24T09:26:24.341Z,8.13
2022-12-24T09:28:51.830Z,8.15
2022-12-24T09:31:19.171Z,8.18
2022-12-24T09:33:48.041Z,8.32
2022-12-24T09:36:15.158Z,8.63
2022-12-24T09:38:41.965Z,8.88
2022-12-24T09:41:34.861Z,9.11
2022-12-24T09:44:20.902Z,9.34
2022-12-24T09:46:49.459Z,9.42
2022-12-24T09:49:20.297Z,9.75
2022-12-24T09:51:52.555Z,10.26
2022-12-24T09:54:22.047Z,10.51
2022-12-24T09:56:49.163Z,10.80
2022-12-24T09:59:22.153Z,11.21
2022-12-24T10:01:50.992Z,11.67
2022-12-24T10:04:20.566Z,11.95
2022-12-24T10:07:11.241Z,11.82
2022-12-24T10:09:59.275Z,11.70
2022-12-24T10:12:44.578Z,11.96
2022-12-24T10:15:20.924Z,12.55
2022-12-24T10:18:11.059Z,12.92
2022-12-24T10:20:56.403Z,12.85
2022-12-24T10:23:49.173Z,12.38
2022-12-24T10:26:46.475Z,11.71
2022-12-24T10:29:34.577Z,11.14
2022-12-24T10:32:17.455Z,10.96
2022-12-24T10:34:57.550Z,10.75
2022-12-24T10:37:26.255Z,10.57
2022-12-24T10:39:53.247Z,10.23
2022-12-24T10:42:21.928Z,9.97
2022-12-24T10:44:52.880Z,9.96
2022-12-24T10:47:22.438Z,10.04
2022-12-24T10:50:03.563Z,10.13
2022-12-24T10:52:35.552Z,10.21
2022-12-24T10:55:20.819Z,10.46
2022-12-24T10:58:00.096Z,10.46
2022-12-24T11:00:31.900Z,10.50
2022-12-24T11:03:22.997Z,10.50
2022-12-24T11:06:02.039Z,11.07
2022-12-24T11:08:28.745Z,11.23
2022-12-24T11:10:56.762Z,11.54
2022-12-24T11:13:38.316Z,11.84
2022-12-24T11:16:23.959Z,12.25
2022-12-24T11:18:53.545Z,12.34
2022-12-24T11:21:40.907Z,12.39
2022-12-24T11:24:13.683Z,12.49
2022-12-24T11:26:42.775Z,12.58
2022-12-24T11:29:27.304Z,12.62
2022-12-24T11:32:16.694Z,12.35
2022-12-24T11:34:44.279Z,12.03
2022-12-24T11:37:24.622Z,11.62
2022-12-24T11:39:54.435Z,11.40
2022-12-24T11:42:35.415Z,11.32
2022-12-24T11:45:05.809Z,11.03
2022-12-24T11:47:40.451Z,10.74
2022-12-24T11:50:22.553Z,10.53
2022-12-24T11:53:05.347Z,10.54
2022-12-24T11:55:42.333Z,10.51
2022-12-24T11:58:18.171Z,10.44
2022-12-24T12:00:46.173Z,10.46
2022-12-24T12:03:40.657Z,10.50
2022-12-24T12:06:25.966Z,10.57
2022-12-24T12:08:57.003Z,10.58
2022-12-24T12:11:27.462Z,10.88
2022-12-24T12:13:56.973Z,11.43
2022-12-24T12:17:00.969Z,11.46
2022-12-24T12:19:40.733Z,11.10
2022-12-24T12:22:18.923Z,10.89
2022-12-24T12:24:51.001Z,10.85
2022-12-24T12:27:27.870Z,10.85
2022-12-24T12:30:00.309Z,10.84
2022-12-24T12:32:39.733Z,10.74
2022-12-24T12:35:17.018Z,10.67
2022-12-24T12:37:52.581Z,10.64
2022-12-24T12:40:19.478Z,10.57
2022-12-24T12:43:16.197Z,10.45
2022-12-24T12:45:50.412Z,10.20
2022-12-24T12:48:25.772Z,10.05
2022-12-24T12:51:31.548Z,9.91
2022-12-24T12:54:21.117Z,9.88
2022-12-24T12:56:52.638Z,9.81
2022-12-24T12:59:22.610Z,9.79
2022-12-24T13:02:19.068Z,9.83
2022-12-24T13:05:00.962Z,9.82
2022-12-24T13:07:43.765Z,9.89
2022-12-24T13:10:58.055Z,9.83
2022-12-24T13:14:01.473Z,9.78
2022-12-24T13:16:46.673Z,9.76
2022-12-24T13:19:34.299Z,9.75
2022-12-24T13:22:05.051Z,9.73
2022-12-24T13:24:33.642Z,9.69
2022-12-24T13:27:15.981Z,9.72
2022-12-24T13:29:44.159Z,9.74
2022-12-24T13:32:20.185Z,9.69
2022-12-24T13:34:53.118Z,9.69
2022-12-24T13:37:24.171Z,9.75
2022-12-24T13:40:06.261Z,9.78
2022-12-24T13:42:51.708Z,9.75
2022-12-24T13:45:30.744Z,9.73
2022-12-24T13:48:06.536Z,9.75
2022-12-24T13:50:48.025Z,9.75
2022-12-24T13:53:38.430Z,9.73
2022-12-24T13:56:20.560Z,9.65
2022-12-24T13:58:53.129Z,9.62
2022-12-24T14:01:24.219Z,9.63
2022-12-24T14:03:54.748Z,9.59
2022-12-24T14:06:25.083Z,9.54
2022-12-24T14:08:55.691Z,9.51
2022-12-24T14:11:25.120Z,9.53
2022-12-24T14:13:55.702Z,9.48
2022-12-24T14:16:24.900Z,9.46
2022-12-24T14:19:02.352Z,9.44
2022-12-24T14:21:36.580Z,9.39
2022-12-24T14:24:07.216Z,9.39
2022-12-24T14:26:43.496Z,9.35
2022-12-24T14:29:24.959Z,9.31
2022-12-24T14:31:54.587Z,9.26
2022-12-24T14:34:21.590Z,9.21
2022-12-24T14:36:49.976Z,9.16
2022-12-24T14:39:36.547Z,9.15
2022-12-24T14:42:36.153Z,9.09
2022-12-24T14:45:15.170Z,9.09
2022-12-24T14:47:47.063Z,9.08
2022-12-24T14:50:16.649Z,9.05
2022-12-24T14:53:06.275Z,9.03
2022-12-24T14:55:47.583Z,9.04
2022-12-24T14:58:34.044Z,9.12
2022-12-24T15:01:20.689Z,9.08
2022-12-24T15:04:11.154Z,9.05
2022-12-24T15:06:41.446Z,8.98
2022-12-24T15:09:19.189Z,8.93
2022-12-24T15:11:47.516Z,8.83
2022-12-24T15:14:14.978Z,8.74
2022-12-24T15:16:42.135Z,8.71
2022-12-24T15:19:29.876Z,8.65
2022-12-24T15:21:56.607Z,8.55
2022-12-24T15:24:32.254Z,8.51
2022-12-24T15:27:02.875Z,8.46
2022-12-24T15:29:32.353Z,8.40
2022-12-24T15:32:01.014Z,8.33
2022-12-24T15:34:37.255Z,8.27
2022-12-24T15:37:18.138Z,8.18
2022-12-24T15:39:53.313Z,8.09
2022-12-24T15:42:22.654Z,8.08
2022-12-24T15:45:04.660Z,8.08
2022-12-24T15:47:45.885Z,8.05
2022-12-24T15:50:23.740Z,7.90
2022-12-24T15:53:19.471Z,7.89
2022-12-24T15:55:44.748Z,7.84
2022-12-24T15:58:27.315Z,7.80
2022-12-24T16:01:09.451Z,7.80
2022-12-24T16:03:39.818Z,7.77
2022-12-24T16:06:08.899Z,7.71
2022-12-24T16:08:39.083Z,7.69
2022-12-24T16:11:05.761Z,7.68
2022-12-24T16:13:51.711Z,7.60
2022-12-24T16:16:21.464Z,7.59
2022-12-24T16:18:54.197Z,7.56
2022-12-24T16:21:37.651Z,7.54
2022-12-24T16:24:13.869Z,7.52
2022-12-24T16:26:41.382Z,7.44
2022-12-24T16:29:08.581Z,7.44
2022-12-24T16:31:56.715Z,7.42
2022-12-24T16:34:29.507Z,7.43
2022-12-24T16:36:57.054Z,7.39
2022-12-24T16:39:31.572Z,7.35
2022-12-24T16:42:39.289Z,7.34
2022-12-24T16:45:06.768Z,7.22
2022-12-24T16:47:41.959Z,7.25
2022-12-24T16:50:16.213Z,7.28
2022-12-24T16:52:43.011Z,7.25
2022-12-24T16:55:13.750Z,7.19
2022-12-24T16:57:41.854Z,7.22
2022-12-24T17:00:14.887Z,7.09
2022-12-24T17:02:41.730Z,7.16
2022-12-24T17:05:08.939Z,7.13
2022-12-24T17:07:41.257Z,7.12
2022-12-24T17:10:11.799Z,7.16
2022-12-24T17:12:38.490Z,7.06
2022-12-24T17:15:05.788Z,7.08
2022-12-24T17:17:32.728Z,7.09
2022-12-24T17:19:59.580Z,7.10
2022-12-24T17:22:29.698Z,7.08
2022-12-24T17:24:57.102Z,7.07
2022-12-24T17:27:24.160Z,7.08
2022-12-24T17:29:51.030Z,7.08
2022-12-24T17:32:17.940Z,7.05
2022-12-24T17:34:44.575Z,7.05
2022-12-24T17:37:11.220Z,7.03
2022-12-24T17:39:37.839Z,7.06
2022-12-24T17:42:04.691Z,7.06
2022-12-24T17:44:31.430Z,7.03
2022-12-24T17:46:58.180Z,7.03
2022-12-24T17:49:24.908Z,7.01
2022-12-24T17:51:51.525Z,7.02
2022-12-24T17:54:18.204Z,7.07
2022-12-24T17:56:45.083Z,7.04
2022-12-24T17:59:11.744Z,7.06
2022-12-24T18:01:38.437Z,7.07
2022-12-24T18:04:05.462Z,7.06
2022-12-24T18:06:32.180Z,7.07
2022-12-24T18:08:58.881Z,7.09
2022-12-24T18:11:32.697Z,7.11
2022-12-24T18:14:01.299Z,7.15
2022-12-24T18:16:31.635Z,7.13
2022-12-24T18:18:59.839Z,7.13
2022-12-24T18:21:29.121Z,7.13
2022-12-24T18:23:56.911Z,7.19
2022-12-24T18:26:26.830Z,7.19
2022-12-24T18:28:55.737Z,7.16
2022-12-24T18:31:23.917Z,7.16
2022-12-24T18:33:51.781Z,7.18
2022-12-24T18:36:19.362Z,7.17
2022-12-24T18:38:47.315Z,7.18
2022-12-24T18:41:17.656Z,7.18
2022-12-24T18:43:44.319Z,7.16
2022-12-24T18:46:19.895Z,7.16
2022-12-24T18:48:47.668Z,7.19
2022-12-24T18:51:15.219Z,7.16
2022-12-24T18:53:42.395Z,7.14
2022-12-24T18:56:15.854Z,7.11
2022-12-24T18:58:43.321Z,7.09
2022-12-24T19:01:18.257Z,7.09
2022-12-24T19:03:45.520Z,7.13
2022-12-24T19:06:12.412Z,7.16
2022-12-24T19:08:57.328Z,7.13
2022-12-24T19:11:26.499Z,7.12
2022-12-24T19:13:53.521Z,7.10
2022-12-24T19:16:21.441Z,7.10
2022-12-24T19:18:48.356Z,7.05
2022-12-24T19:21:17.383Z,7.05
2022-12-24T19:23:45.142Z,7.06
2022-12-24T19:26:12.550Z,7.09
2022-12-24T19:28:39.658Z,7.09
2022-12-24T19:31:09.760Z,7.11
2022-12-24T19:33:43.207Z,7.08
2022-12-24T19:36:12.833Z,6.98
2022-12-24T19:38:39.737Z,7.00
2022-12-24T19:41:24.498Z,7.02
2022-12-24T19:43:53.977Z,7.02
2022-12-24T19:46:24.027Z,7.01
2022-12-24T19:48:57.080Z,7.01
2022-12-24T19:51:24.939Z,6.97
2022-12-24T19:53:52.501Z,6.95
2022-12-24T19:56:20.832Z,6.98
2022-12-24T19:58:48.262Z,6.94
2022-12-24T20:01:17.876Z,6.92
2022-12-24T20:03:45.763Z,6.86
2022-12-24T20:06:13.867Z,6.94
2022-12-24T20:08:41.232Z,6.95
2022-12-24T20:11:10.182Z,7.00
2022-12-24T20:13:39.291Z,7.01
2022-12-24T20:16:15.519Z,7.00
2022-12-24T20:18:42.578Z,6.98
2022-12-24T20:21:12.851Z,6.98
2022-12-24T20:23:40.642Z,6.96
2022-12-24T20:26:10.784Z,6.90
2022-12-24T20:28:37.925Z,6.93
2022-12-24T20:31:16.510Z,6.95
2022-12-24T20:33:44.418Z,6.92
2022-12-24T20:36:13.127Z,6.84
2022-12-24T20:38:40.074Z,6.91
2022-12-24T20:41:09.708Z,6.97
2022-12-24T20:43:47.479Z,6.98
2022-12-24T20:46:15.380Z,6.92
2022-12-24T20:48:42.361Z,6.88
2022-12-24T20:51:19.213Z,6.91
2022-12-24T20:53:49.918Z,6.87
2022-12-24T20:56:18.056Z,6.87
2022-12-24T20:58:45.574Z,6.90
2022-12-24T21:01:16.712Z,6.89
2022-12-24T21:03:43.777Z,6.86
2022-12-24T21:06:10.658Z,6.85
2022-12-24T21:08:37.569Z,6.85
2022-12-24T21:11:22.876Z,6.84
2022-12-24T21:13:49.540Z,6.86
2022-12-24T21:16:16.260Z,6.85
2022-12-24T21:18:42.983Z,6.84
2022-12-24T21:21:09.634Z,6.85
2022-12-24T21:23:36.370Z,6.80
2022-12-24T21:26:04.629Z,6.79
2022-12-24T21:28:32.729Z,6.79
2022-12-24T21:31:00.087Z,6.78
2022-12-24T21:33:26.842Z,6.75
2022-12-24T21:36:00.044Z,6.80
2022-12-24T21:38:26.908Z,6.77
2022-12-24T21:41:04.531Z,6.74
2022-12-24T21:43:33.231Z,6.77
2022-12-24T21:46:00.811Z,6.74
2022-12-24T21:48:46.188Z,6.77
2022-12-24T21:51:12.848Z,6.76
2022-12-24T21:53:58.027Z,6.76
2022-12-24T21:56:24.866Z,6.72
2022-12-24T21:58:52.057Z,6.70
2022-12-24T22:01:19.649Z,6.67
2022-12-24T22:03:50.335Z,6.66
2022-12-24T22:06:35.932Z,6.65
2022-12-24T22:09:21.758Z,6.67
2022-12-24T22:11:53.862Z,6.69
2022-12-24T22:14:21.376Z,6.70
2022-12-24T22:16:48.038Z,6.71
2022-12-24T22:19:14.743Z,6.68
2022-12-24T22:21:41.424Z,6.70
2022-12-24T22:24:08.524Z,6.71
2022-12-24T22:26:35.210Z,6.69
2022-12-24T22:29:05.298Z,6.66
2022-12-24T22:31:32.755Z,6.68
2022-12-24T22:33:59.658Z,6.70
2022-12-24T22:36:26.587Z,6.76
2022-12-24T22:38:53.260Z,6.75
2022-12-24T22:41:20.445Z,6.74
2022-12-24T22:43:49.208Z,6.75
2022-12-24T22:46:17.402Z,6.72
2022-12-24T22:48:45.637Z,6.69
2022-12-24T22:51:18.443Z,6.68
2022-12-24T22:53:46.040Z,6.62
2022-12-24T22:56:17.929Z,6.60
2022-12-24T22:58:44.903Z,6.56
2022-12-24T23:01:11.887Z,6.50
2022-12-24T23:03:39.145Z,6.54
2022-12-24T23:06:07.483Z,6.54
2022-12-24T23:08:36.384Z,6.54
2022-12-24T23:11:14.557Z,6.55
2022-12-24T23:14:02.684Z,6.51
2022-12-24T23:16:30.924Z,6.49
2022-12-24T23:18:59.547Z,6.48
2022-12-24T23:21:27.434Z,6.49
2022-12-24T23:23:56.001Z,6.50
2022-12-24T23:26:23.169Z,6.47
2022-12-24T23:28:50.144Z,6.42
2022-12-24T23:31:17.199Z,6.39
2022-12-24T23:33:44.410Z,6.38
2022-12-24T23:36:11.622Z,6.36
2022-12-24T23:38:38.670Z,6.37
2022-12-24T23:41:07.630Z,6.33
2022-12-24T23:43:35.834Z,6.33
2022-12-24T23:46:03.317Z,6.32
2022-12-24T23:48:30.429Z,6.32
2022-12-24T23:51:08.778Z,6.31
2022-12-24T23:53:36.202Z,6.31
2022-12-24T23:56:03.622Z,6.31
2022-12-24T23:58:30.911Z,6.30
